sensor_id;sensor_type;location;lat;lon;timestamp;temperature;humidity
46091;DHT22;31826;53.572;10.170;2023-06-24T00:01:36;17.10;99.90
46091;DHT22;31826;53.572;10.170;2023-06-24T00:04:04;17.10;99.90
46091;DHT22;31826;53.572;10.170;2023-06-24T00:06:29;17.10;99.90
46091;DHT22;31826;53.572;10.170;2023-06-24T00:08:55;17.10;99.90
46091;DHT22;31826;53.572;10.170;2023-06-24T00:11:29;17.10;99.90
46091;DHT22;31826;53.572;10.170;2023-06-24T00:13:55;17.10;99.90
46091;DHT22;31826;53.572;10.170;2023-06-24T00:16:21;17.00;99.90
46091;DHT22;31826;53.572;10.170;2023-06-24T00:18:54;17.00;99.90
46091;DHT22;31826;53.572;10.170;2023-06-24T00:21:20;17.00;99.90
46091;DHT22;31826;53.572;10.170;2023-06-24T00:23:46;17.00;99.90
46091;DHT22;31826;53.572;10.170;2023-06-24T00:26:14;17.00;99.90
46091;DHT22;31826;53.572;10.170;2023-06-24T00:28:42;17.00;99.90
46091;DHT22;31826;53.572;10.170;2023-06-24T00:31:07;16.90;99.90
46091;DHT22;31826;53.572;10.170;2023-06-24T00:33:33;16.90;99.90
46091;DHT22;31826;53.572;10.170;2023-06-24T00:36:02;16.90;99.90
46091;DHT22;31826;53.572;10.170;2023-06-24T00:38:27;16.90;99.90
46091;DHT22;31826;53.572;10.170;2023-06-24T00:41:01;16.80;99.90
46091;DHT22;31826;53.572;10.170;2023-06-24T00:43:27;16.80;99.90
46091;DHT22;31826;53.572;10.170;2023-06-24T00:45:55;16.80;99.90
46091;DHT22;31826;53.572;10.170;2023-06-24T00:48:22;16.70;99.90
46091;DHT22;31826;53.572;10.170;2023-06-24T00:50:47;16.70;99.90
46091;DHT22;31826;53.572;10.170;2023-06-24T00:53:18;16.70;99.90
46091;DHT22;31826;53.572;10.170;2023-06-24T00:55:47;16.70;99.90
46091;DHT22;31826;53.572;10.170;2023-06-24T00:58:14;16.70;99.90
46091;DHT22;31826;53.572;10.170;2023-06-24T01:00:42;16.70;99.90
46091;DHT22;31826;53.572;10.170;2023-06-24T01:03:11;16.60;99.90
46091;DHT22;31826;53.572;10.170;2023-06-24T01:05:40;16.60;99.90
46091;DHT22;31826;53.572;10.170;2023-06-24T01:08:06;16.60;99.90
46091;DHT22;31826;53.572;10.170;2023-06-24T01:10:32;16.60;99.90
46091;DHT22;31826;53.572;10.170;2023-06-24T01:12:58;16.60;99.90
46091;DHT22;31826;53.572;10.170;2023-06-24T01:15:24;16.60;99.90
46091;DHT22;31826;53.572;10.170;2023-06-24T01:18:43;16.60;99.90
46091;DHT22;31826;53.572;10.170;2023-06-24T01:21:54;16.50;99.90
46091;DHT22;31826;53.572;10.170;2023-06-24T01:24:35;16.50;99.90
46091;DHT22;31826;53.572;10.170;2023-06-24T01:30:04;16.40;99.90
46091;DHT22;31826;53.572;10.170;2023-06-24T01:32:59;16.40;99.90
46091;DHT22;31826;53.572;10.170;2023-06-24T01:35:31;16.40;99.90
46091;DHT22;31826;53.572;10.170;2023-06-24T01:38:03;16.30;99.90
46091;DHT22;31826;53.572;10.170;2023-06-24T01:40:41;16.30;99.90
46091;DHT22;31826;53.572;10.170;2023-06-24T01:43:09;16.30;99.90
46091;DHT22;31826;53.572;10.170;2023-06-24T01:45:44;16.20;99.90
46091;DHT22;31826;53.572;10.170;2023-06-24T01:48:22;16.20;99.90
46091;DHT22;31826;53.572;10.170;2023-06-24T01:51:07;16.20;99.90
46091;DHT22;31826;53.572;10.170;2023-06-24T01:53:36;16.30;99.90
46091;DHT22;31826;53.572;10.170;2023-06-24T01:56:06;16.20;99.90
46091;DHT22;31826;53.572;10.170;2023-06-24T01:58:34;16.20;99.90
46091;DHT22;31826;53.572;10.170;2023-06-24T02:01:02;16.20;99.90
46091;DHT22;31826;53.572;10.170;2023-06-24T02:03:28;16.20;99.90
46091;DHT22;31826;53.572;10.170;2023-06-24T02:05:56;16.20;99.90
46091;DHT22;31826;53.572;10.170;2023-06-24T02:08:23;16.20;99.90
46091;DHT22;31826;53.572;10.170;2023-06-24T02:10:50;16.20;99.90
46091;DHT22;31826;53.572;10.170;2023-06-24T02:13:17;16.20;99.90
46091;DHT22;31826;53.572;10.170;2023-06-24T02:15:45;16.10;99.90
46091;DHT22;31826;53.572;10.170;2023-06-24T02:18:13;16.10;99.90
46091;DHT22;31826;53.572;10.170;2023-06-24T02:20:41;16.10;99.90
46091;DHT22;31826;53.572;10.170;2023-06-24T02:23:09;16.10;99.90
46091;DHT22;31826;53.572;10.170;2023-06-24T02:25:37;16.00;99.90
46091;DHT22;31826;53.572;10.170;2023-06-24T02:28:07;16.00;99.90
46091;DHT22;31826;53.572;10.170;2023-06-24T02:30:38;16.00;99.90
46091;DHT22;31826;53.572;10.170;2023-06-24T02:33:04;15.90;99.90
46091;DHT22;31826;53.572;10.170;2023-06-24T02:35:30;16.00;99.90
46091;DHT22;31826;53.572;10.170;2023-06-24T02:37:56;16.00;99.90
46091;DHT22;31826;53.572;10.170;2023-06-24T02:40:22;15.90;99.90
46091;DHT22;31826;53.572;10.170;2023-06-24T02:42:47;15.90;99.90
46091;DHT22;31826;53.572;10.170;2023-06-24T02:45:14;15.90;99.90
46091;DHT22;31826;53.572;10.170;2023-06-24T02:47:43;15.80;99.90
46091;DHT22;31826;53.572;10.170;2023-06-24T02:50:11;15.90;99.90
46091;DHT22;31826;53.572;10.170;2023-06-24T02:52:37;15.80;99.90
46091;DHT22;31826;53.572;10.170;2023-06-24T02:55:05;15.80;99.90
46091;DHT22;31826;53.572;10.170;2023-06-24T02:57:31;15.80;99.90
46091;DHT22;31826;53.572;10.170;2023-06-24T02:59:58;15.80;99.90
46091;DHT22;31826;53.572;10.170;2023-06-24T03:02:24;15.80;99.90
46091;DHT22;31826;53.572;10.170;2023-06-24T03:04:52;15.80;99.90
46091;DHT22;31826;53.572;10.170;2023-06-24T03:07:19;15.80;99.90
46091;DHT22;31826;53.572;10.170;2023-06-24T03:09:48;15.70;99.90
46091;DHT22;31826;53.572;10.170;2023-06-24T03:12:13;15.70;99.90
46091;DHT22;31826;53.572;10.170;2023-06-24T03:14:39;15.70;99.90
46091;DHT22;31826;53.572;10.170;2023-06-24T03:17:05;15.70;99.90
46091;DHT22;31826;53.572;10.170;2023-06-24T03:19:30;15.70;99.90
46091;DHT22;31826;53.572;10.170;2023-06-24T03:21:56;15.70;99.90
46091;DHT22;31826;53.572;10.170;2023-06-24T03:24:22;15.60;99.90
46091;DHT22;31826;53.572;10.170;2023-06-24T03:26:48;15.60;99.90
46091;DHT22;31826;53.572;10.170;2023-06-24T03:29:15;15.70;99.90
46091;DHT22;31826;53.572;10.170;2023-06-24T03:31:41;15.60;99.90
46091;DHT22;31826;53.572;10.170;2023-06-24T03:34:10;15.70;99.90
46091;DHT22;31826;53.572;10.170;2023-06-24T03:36:36;15.70;99.90
46091;DHT22;31826;53.572;10.170;2023-06-24T03:39:04;15.60;99.90
46091;DHT22;31826;53.572;10.170;2023-06-24T03:41:30;15.60;99.90
46091;DHT22;31826;53.572;10.170;2023-06-24T03:43:55;15.60;99.90
46091;DHT22;31826;53.572;10.170;2023-06-24T03:46:21;15.60;99.90
46091;DHT22;31826;53.572;10.170;2023-06-24T03:48:47;15.60;99.90
46091;DHT22;31826;53.572;10.170;2023-06-24T03:51:13;15.60;99.90
46091;DHT22;31826;53.572;10.170;2023-06-24T03:53:39;15.70;99.90
46091;DHT22;31826;53.572;10.170;2023-06-24T03:56:04;15.70;99.90
46091;DHT22;31826;53.572;10.170;2023-06-24T03:58:30;15.70;99.90
46091;DHT22;31826;53.572;10.170;2023-06-24T04:00:59;15.70;99.90
46091;DHT22;31826;53.572;10.170;2023-06-24T04:03:25;15.80;99.90
46091;DHT22;31826;53.572;10.170;2023-06-24T04:05:53;15.80;99.90
46091;DHT22;31826;53.572;10.170;2023-06-24T04:08:19;15.80;99.90
46091;DHT22;31826;53.572;10.170;2023-06-24T04:10:45;15.90;99.90
46091;DHT22;31826;53.572;10.170;2023-06-24T04:13:11;16.00;99.90
46091;DHT22;31826;53.572;10.170;2023-06-24T04:15:36;16.00;99.90
46091;DHT22;31826;53.572;10.170;2023-06-24T04:18:02;16.00;99.90
46091;DHT22;31826;53.572;10.170;2023-06-24T04:20:28;16.10;99.90
46091;DHT22;31826;53.572;10.170;2023-06-24T04:22:54;16.20;99.90
46091;DHT22;31826;53.572;10.170;2023-06-24T04:25:19;16.30;99.90
46091;DHT22;31826;53.572;10.170;2023-06-24T04:27:45;16.40;99.90
46091;DHT22;31826;53.572;10.170;2023-06-24T04:30:11;16.40;99.90
46091;DHT22;31826;53.572;10.170;2023-06-24T04:32:37;16.50;99.90
46091;DHT22;31826;53.572;10.170;2023-06-24T04:35:03;16.50;99.90
46091;DHT22;31826;53.572;10.170;2023-06-24T04:37:32;16.40;99.90
46091;DHT22;31826;53.572;10.170;2023-06-24T04:39:58;16.50;99.90
46091;DHT22;31826;53.572;10.170;2023-06-24T04:42:24;16.50;99.90
46091;DHT22;31826;53.572;10.170;2023-06-24T04:44:49;16.50;99.90
46091;DHT22;31826;53.572;10.170;2023-06-24T04:47:17;16.60;99.90
46091;DHT22;31826;53.572;10.170;2023-06-24T04:49:43;16.60;99.90
46091;DHT22;31826;53.572;10.170;2023-06-24T04:52:10;16.70;99.90
46091;DHT22;31826;53.572;10.170;2023-06-24T04:54:36;16.70;99.90
46091;DHT22;31826;53.572;10.170;2023-06-24T04:57:01;16.70;99.90
46091;DHT22;31826;53.572;10.170;2023-06-24T04:59:27;16.80;99.90
46091;DHT22;31826;53.572;10.170;2023-06-24T05:01:53;16.90;99.90
46091;DHT22;31826;53.572;10.170;2023-06-24T05:04:19;16.90;99.90
46091;DHT22;31826;53.572;10.170;2023-06-24T05:06:44;16.90;99.90
46091;DHT22;31826;53.572;10.170;2023-06-24T05:09:10;16.80;99.90
46091;DHT22;31826;53.572;10.170;2023-06-24T05:11:40;16.90;99.90
46091;DHT22;31826;53.572;10.170;2023-06-24T05:14:05;17.00;99.90
46091;DHT22;31826;53.572;10.170;2023-06-24T05:16:31;16.90;99.90
46091;DHT22;31826;53.572;10.170;2023-06-24T05:18:57;17.00;99.90
46091;DHT22;31826;53.572;10.170;2023-06-24T05:21:23;17.10;99.90
46091;DHT22;31826;53.572;10.170;2023-06-24T05:23:48;17.10;99.90
46091;DHT22;31826;53.572;10.170;2023-06-24T05:26:14;17.20;99.90
46091;DHT22;31826;53.572;10.170;2023-06-24T05:28:40;17.10;99.90
46091;DHT22;31826;53.572;10.170;2023-06-24T05:31:06;17.20;99.90
46091;DHT22;31826;53.572;10.170;2023-06-24T05:33:31;17.20;99.90
46091;DHT22;31826;53.572;10.170;2023-06-24T05:35:57;17.20;99.90
46091;DHT22;31826;53.572;10.170;2023-06-24T05:38:23;17.40;99.90
46091;DHT22;31826;53.572;10.170;2023-06-24T05:40:48;17.30;99.90
46091;DHT22;31826;53.572;10.170;2023-06-24T05:43:14;17.50;99.90
46091;DHT22;31826;53.572;10.170;2023-06-24T05:45:40;17.50;99.90
46091;DHT22;31826;53.572;10.170;2023-06-24T05:48:06;17.50;99.90
46091;DHT22;31826;53.572;10.170;2023-06-24T05:50:31;17.60;99.90
46091;DHT22;31826;53.572;10.170;2023-06-24T05:52:58;17.70;99.90
46091;DHT22;31826;53.572;10.170;2023-06-24T05:55:23;17.90;99.90
46091;DHT22;31826;53.572;10.170;2023-06-24T05:57:49;18.00;99.90
46091;DHT22;31826;53.572;10.170;2023-06-24T06:00:17;18.20;99.90
46091;DHT22;31826;53.572;10.170;2023-06-24T06:02:43;18.30;99.90
46091;DHT22;31826;53.572;10.170;2023-06-24T06:05:08;18.40;99.90
46091;DHT22;31826;53.572;10.170;2023-06-24T06:07:34;18.60;99.90
46091;DHT22;31826;53.572;10.170;2023-06-24T06:10:00;18.70;99.90
46091;DHT22;31826;53.572;10.170;2023-06-24T06:12:26;18.80;99.90
46091;DHT22;31826;53.572;10.170;2023-06-24T06:14:52;18.50;99.90
46091;DHT22;31826;53.572;10.170;2023-06-24T06:17:17;18.60;99.90
46091;DHT22;31826;53.572;10.170;2023-06-24T06:19:43;18.80;99.90
46091;DHT22;31826;53.572;10.170;2023-06-24T06:22:12;18.90;99.90
46091;DHT22;31826;53.572;10.170;2023-06-24T06:24:39;18.80;99.90
46091;DHT22;31826;53.572;10.170;2023-06-24T06:27:08;18.70;99.90
46091;DHT22;31826;53.572;10.170;2023-06-24T06:29:34;18.80;99.90
46091;DHT22;31826;53.572;10.170;2023-06-24T06:32:00;18.80;99.90
46091;DHT22;31826;53.572;10.170;2023-06-24T06:34:26;18.80;99.90
46091;DHT22;31826;53.572;10.170;2023-06-24T06:36:51;18.90;99.90
46091;DHT22;31826;53.572;10.170;2023-06-24T06:39:17;18.90;99.90
46091;DHT22;31826;53.572;10.170;2023-06-24T06:41:42;18.80;99.90
46091;DHT22;31826;53.572;10.170;2023-06-24T06:44:08;18.90;99.90
46091;DHT22;31826;53.572;10.170;2023-06-24T06:46:34;19.00;99.90
46091;DHT22;31826;53.572;10.170;2023-06-24T06:48:59;19.00;99.90
46091;DHT22;31826;53.572;10.170;2023-06-24T06:51:25;19.30;99.90
46091;DHT22;31826;53.572;10.170;2023-06-24T06:53:51;19.50;99.90
46091;DHT22;31826;53.572;10.170;2023-06-24T06:56:24;19.60;99.90
46091;DHT22;31826;53.572;10.170;2023-06-24T06:58:50;19.50;99.90
46091;DHT22;31826;53.572;10.170;2023-06-24T07:01:17;19.50;99.90
46091;DHT22;31826;53.572;10.170;2023-06-24T07:03:42;19.60;99.90
46091;DHT22;31826;53.572;10.170;2023-06-24T07:06:08;19.50;99.90
46091;DHT22;31826;53.572;10.170;2023-06-24T07:08:34;19.60;99.90
46091;DHT22;31826;53.572;10.170;2023-06-24T07:11:01;19.70;99.90
46091;DHT22;31826;53.572;10.170;2023-06-24T07:13:26;19.70;99.90
46091;DHT22;31826;53.572;10.170;2023-06-24T07:15:52;19.90;99.90
46091;DHT22;31826;53.572;10.170;2023-06-24T07:18:18;20.50;99.90
46091;DHT22;31826;53.572;10.170;2023-06-24T07:20:43;20.90;99.90
46091;DHT22;31826;53.572;10.170;2023-06-24T07:23:09;21.20;99.90
46091;DHT22;31826;53.572;10.170;2023-06-24T07:25:36;21.40;99.90
46091;DHT22;31826;53.572;10.170;2023-06-24T07:28:02;21.20;99.90
46091;DHT22;31826;53.572;10.170;2023-06-24T07:30:27;21.00;99.90
46091;DHT22;31826;53.572;10.170;2023-06-24T07:32:53;20.80;99.90
46091;DHT22;31826;53.572;10.170;2023-06-24T07:35:18;20.80;99.90
46091;DHT22;31826;53.572;10.170;2023-06-24T07:37:45;21.30;99.90
46091;DHT22;31826;53.572;10.170;2023-06-24T07:40:10;21.60;99.90
46091;DHT22;31826;53.572;10.170;2023-06-24T07:42:36;22.00;99.90
46091;DHT22;31826;53.572;10.170;2023-06-24T07:45:02;22.30;99.90
46091;DHT22;31826;53.572;10.170;2023-06-24T07:47:28;22.30;99.60
46091;DHT22;31826;53.572;10.170;2023-06-24T07:49:53;22.60;99.90
46091;DHT22;31826;53.572;10.170;2023-06-24T07:52:19;22.20;99.90
46091;DHT22;31826;53.572;10.170;2023-06-24T07:54:45;22.00;99.90
46091;DHT22;31826;53.572;10.170;2023-06-24T07:57:10;21.80;99.80
46091;DHT22;31826;53.572;10.170;2023-06-24T07:59:36;21.70;99.90
46091;DHT22;31826;53.572;10.170;2023-06-24T08:02:02;21.80;99.90
46091;DHT22;31826;53.572;10.170;2023-06-24T08:04:27;22.30;99.90
46091;DHT22;31826;53.572;10.170;2023-06-24T08:06:53;22.40;98.60
46091;DHT22;31826;53.572;10.170;2023-06-24T08:09:19;22.00;98.80
46091;DHT22;31826;53.572;10.170;2023-06-24T08:11:44;22.10;98.70
46091;DHT22;31826;53.572;10.170;2023-06-24T08:14:10;21.90;98.10
46091;DHT22;31826;53.572;10.170;2023-06-24T08:16:36;21.70;99.40
46091;DHT22;31826;53.572;10.170;2023-06-24T08:19:02;21.70;99.90
46091;DHT22;31826;53.572;10.170;2023-06-24T08:21:28;21.60;97.90
46091;DHT22;31826;53.572;10.170;2023-06-24T08:23:55;21.70;99.20
46091;DHT22;31826;53.572;10.170;2023-06-24T08:26:21;21.90;99.60
46091;DHT22;31826;53.572;10.170;2023-06-24T08:28:47;22.00;99.80
46091;DHT22;31826;53.572;10.170;2023-06-24T08:31:13;22.10;97.40
46091;DHT22;31826;53.572;10.170;2023-06-24T08:33:43;22.50;99.90
46091;DHT22;31826;53.572;10.170;2023-06-24T08:36:08;22.70;98.70
46091;DHT22;31826;53.572;10.170;2023-06-24T08:38:34;22.70;98.80
46091;DHT22;31826;53.572;10.170;2023-06-24T08:41:00;22.30;99.00
46091;DHT22;31826;53.572;10.170;2023-06-24T08:43:25;22.20;99.80
46091;DHT22;31826;53.572;10.170;2023-06-24T08:45:51;22.40;98.60
46091;DHT22;31826;53.572;10.170;2023-06-24T08:48:19;22.50;98.70
46091;DHT22;31826;53.572;10.170;2023-06-24T08:50:50;22.50;98.70
46091;DHT22;31826;53.572;10.170;2023-06-24T08:53:18;22.40;99.50
46091;DHT22;31826;53.572;10.170;2023-06-24T08:55:46;22.50;99.60
46091;DHT22;31826;53.572;10.170;2023-06-24T08:58:13;22.50;98.20
46091;DHT22;31826;53.572;10.170;2023-06-24T09:00:39;22.20;99.30
46091;DHT22;31826;53.572;10.170;2023-06-24T09:03:05;22.10;99.00
46091;DHT22;31826;53.572;10.170;2023-06-24T09:05:31;22.20;99.00
46091;DHT22;31826;53.572;10.170;2023-06-24T09:07:56;22.40;98.60
46091;DHT22;31826;53.572;10.170;2023-06-24T09:10:37;22.50;97.70
46091;DHT22;31826;53.572;10.170;2023-06-24T09:13:06;22.60;98.00
46091;DHT22;31826;53.572;10.170;2023-06-24T09:15:36;22.60;99.40
46091;DHT22;31826;53.572;10.170;2023-06-24T09:18:03;22.70;98.00
46091;DHT22;31826;53.572;10.170;2023-06-24T09:20:33;22.80;97.70
46091;DHT22;31826;53.572;10.170;2023-06-24T09:23:04;22.80;97.70
46091;DHT22;31826;53.572;10.170;2023-06-24T09:25:30;22.70;97.40
46091;DHT22;31826;53.572;10.170;2023-06-24T09:28:00;22.90;98.00
46091;DHT22;31826;53.572;10.170;2023-06-24T09:30:26;22.90;96.90
46091;DHT22;31826;53.572;10.170;2023-06-24T09:32:53;23.10;97.80
46091;DHT22;31826;53.572;10.170;2023-06-24T09:35:24;23.10;97.90
46091;DHT22;31826;53.572;10.170;2023-06-24T09:37:54;23.30;98.30
46091;DHT22;31826;53.572;10.170;2023-06-24T09:40:20;23.50;96.60
46091;DHT22;31826;53.572;10.170;2023-06-24T09:42:57;23.60;95.70
46091;DHT22;31826;53.572;10.170;2023-06-24T09:45:27;23.70;95.80
46091;DHT22;31826;53.572;10.170;2023-06-24T09:47:54;23.60;95.10
46091;DHT22;31826;53.572;10.170;2023-06-24T09:50:21;23.60;95.50
46091;DHT22;31826;53.572;10.170;2023-06-24T09:52:48;23.70;95.60
46091;DHT22;31826;53.572;10.170;2023-06-24T09:55:15;23.70;94.60
46091;DHT22;31826;53.572;10.170;2023-06-24T09:57:46;24.10;99.20
46091;DHT22;31826;53.572;10.170;2023-06-24T10:00:18;24.50;94.30
46091;DHT22;31826;53.572;10.170;2023-06-24T10:02:45;24.70;94.90
46091;DHT22;31826;53.572;10.170;2023-06-24T10:05:12;24.80;93.10
46091;DHT22;31826;53.572;10.170;2023-06-24T10:07:39;25.10;94.20
46091;DHT22;31826;53.572;10.170;2023-06-24T10:10:06;25.10;92.90
46091;DHT22;31826;53.572;10.170;2023-06-24T10:12:33;25.00;92.10
46091;DHT22;31826;53.572;10.170;2023-06-24T10:15:00;25.00;93.50
46091;DHT22;31826;53.572;10.170;2023-06-24T10:17:26;25.00;91.70
46091;DHT22;31826;53.572;10.170;2023-06-24T10:19:53;24.90;93.10
46091;DHT22;31826;53.572;10.170;2023-06-24T10:22:24;25.00;93.60
46091;DHT22;31826;53.572;10.170;2023-06-24T10:24:52;25.30;94.00
46091;DHT22;31826;53.572;10.170;2023-06-24T10:27:20;25.40;92.90
46091;DHT22;31826;53.572;10.170;2023-06-24T10:29:52;25.60;93.30
46091;DHT22;31826;53.572;10.170;2023-06-24T10:32:19;25.40;92.50
46091;DHT22;31826;53.572;10.170;2023-06-24T10:34:47;25.50;92.30
46091;DHT22;31826;53.572;10.170;2023-06-24T10:37:20;25.60;93.10
46091;DHT22;31826;53.572;10.170;2023-06-24T10:39:57;25.90;94.70
46091;DHT22;31826;53.572;10.170;2023-06-24T10:42:36;26.30;92.00
46091;DHT22;31826;53.572;10.170;2023-06-24T10:47:44;26.30;91.70
46091;DHT22;31826;53.572;10.170;2023-06-24T10:50:12;26.20;91.10
46091;DHT22;31826;53.572;10.170;2023-06-24T10:52:40;26.00;92.30
46091;DHT22;31826;53.572;10.170;2023-06-24T10:55:06;26.10;92.90
46091;DHT22;31826;53.572;10.170;2023-06-24T10:57:33;26.40;91.90
46091;DHT22;31826;53.572;10.170;2023-06-24T10:59:59;26.80;93.40
46091;DHT22;31826;53.572;10.170;2023-06-24T11:02:27;27.00;91.20
46091;DHT22;31826;53.572;10.170;2023-06-24T11:04:55;26.90;91.40
46091;DHT22;31826;53.572;10.170;2023-06-24T11:07:23;27.10;92.10
46091;DHT22;31826;53.572;10.170;2023-06-24T11:09:53;27.30;91.60
46091;DHT22;31826;53.572;10.170;2023-06-24T11:12:26;27.20;90.80
46091;DHT22;31826;53.572;10.170;2023-06-24T11:14:58;27.00;89.60
46091;DHT22;31826;53.572;10.170;2023-06-24T11:17:27;27.00;91.60
46091;DHT22;31826;53.572;10.170;2023-06-24T11:19:54;27.00;91.20
46091;DHT22;31826;53.572;10.170;2023-06-24T11:22:20;27.20;91.50
46091;DHT22;31826;53.572;10.170;2023-06-24T11:24:46;27.30;90.30
46091;DHT22;31826;53.572;10.170;2023-06-24T11:27:12;27.30;91.00
46091;DHT22;31826;53.572;10.170;2023-06-24T11:29:38;28.00;91.30
46091;DHT22;31826;53.572;10.170;2023-06-24T11:32:07;28.30;87.70
46091;DHT22;31826;53.572;10.170;2023-06-24T11:34:33;28.30;86.30
46091;DHT22;31826;53.572;10.170;2023-06-24T11:37:11;28.10;85.20
46091;DHT22;31826;53.572;10.170;2023-06-24T11:39:37;27.90;86.30
46091;DHT22;31826;53.572;10.170;2023-06-24T11:42:06;27.80;88.80
46091;DHT22;31826;53.572;10.170;2023-06-24T11:44:32;27.80;84.20
46091;DHT22;31826;53.572;10.170;2023-06-24T11:47:08;27.60;85.40
46091;DHT22;31826;53.572;10.170;2023-06-24T11:49:56;27.20;86.30
46091;DHT22;31826;53.572;10.170;2023-06-24T11:55:18;27.20;87.40
46091;DHT22;31826;53.572;10.170;2023-06-24T11:57:58;27.10;87.30
46091;DHT22;31826;53.572;10.170;2023-06-24T12:00:39;27.60;88.30
46091;DHT22;31826;53.572;10.170;2023-06-24T12:03:10;27.50;84.40
46091;DHT22;31826;53.572;10.170;2023-06-24T12:05:38;27.00;86.60
46091;DHT22;31826;53.572;10.170;2023-06-24T12:08:07;27.00;89.00
46091;DHT22;31826;53.572;10.170;2023-06-24T12:10:33;27.40;89.10
46091;DHT22;31826;53.572;10.170;2023-06-24T12:13:00;27.40;86.00
46091;DHT22;31826;53.572;10.170;2023-06-24T12:15:27;27.50;86.70
46091;DHT22;31826;53.572;10.170;2023-06-24T12:17:53;27.50;87.20
46091;DHT22;31826;53.572;10.170;2023-06-24T12:20:18;27.40;88.40
46091;DHT22;31826;53.572;10.170;2023-06-24T12:22:46;27.30;86.60
46091;DHT22;31826;53.572;10.170;2023-06-24T12:25:12;27.10;88.90
46091;DHT22;31826;53.572;10.170;2023-06-24T12:27:38;27.20;90.00
46091;DHT22;31826;53.572;10.170;2023-06-24T12:30:06;27.30;89.80
46091;DHT22;31826;53.572;10.170;2023-06-24T12:32:32;27.20;88.60
46091;DHT22;31826;53.572;10.170;2023-06-24T12:34:58;27.40;89.50
46091;DHT22;31826;53.572;10.170;2023-06-24T12:37:23;27.40;90.70
46091;DHT22;31826;53.572;10.170;2023-06-24T12:39:49;27.20;87.70
46091;DHT22;31826;53.572;10.170;2023-06-24T12:42:16;27.20;90.00
46091;DHT22;31826;53.572;10.170;2023-06-24T12:44:42;27.50;88.30
46091;DHT22;31826;53.572;10.170;2023-06-24T12:47:08;27.80;88.30
46091;DHT22;31826;53.572;10.170;2023-06-24T12:49:33;27.40;87.60
46091;DHT22;31826;53.572;10.170;2023-06-24T12:51:59;27.50;89.60
46091;DHT22;31826;53.572;10.170;2023-06-24T12:54:25;27.50;86.60
46091;DHT22;31826;53.572;10.170;2023-06-24T12:56:50;27.30;87.80
46091;DHT22;31826;53.572;10.170;2023-06-24T12:59:16;27.30;89.10
46091;DHT22;31826;53.572;10.170;2023-06-24T13:01:42;27.80;89.50
46091;DHT22;31826;53.572;10.170;2023-06-24T13:04:10;28.30;90.10
46091;DHT22;31826;53.572;10.170;2023-06-24T13:06:36;28.50;90.60
46091;DHT22;31826;53.572;10.170;2023-06-24T13:09:02;28.60;87.40
46091;DHT22;31826;53.572;10.170;2023-06-24T13:11:28;28.60;87.40
46091;DHT22;31826;53.572;10.170;2023-06-24T13:13:54;28.50;88.60
46091;DHT22;31826;53.572;10.170;2023-06-24T13:16:20;28.70;88.80
46091;DHT22;31826;53.572;10.170;2023-06-24T13:18:45;28.40;86.10
46091;DHT22;31826;53.572;10.170;2023-06-24T13:21:11;28.30;86.20
46091;DHT22;31826;53.572;10.170;2023-06-24T13:23:37;28.10;87.30
46091;DHT22;31826;53.572;10.170;2023-06-24T13:26:04;27.80;86.90
46091;DHT22;31826;53.572;10.170;2023-06-24T13:28:30;27.80;90.00
46091;DHT22;31826;53.572;10.170;2023-06-24T13:30:57;28.50;91.10
46091;DHT22;31826;53.572;10.170;2023-06-24T13:33:23;29.30;89.70
46091;DHT22;31826;53.572;10.170;2023-06-24T13:35:49;29.50;85.40
46091;DHT22;31826;53.572;10.170;2023-06-24T13:38:17;29.80;84.90
46091;DHT22;31826;53.572;10.170;2023-06-24T13:40:43;29.80;83.40
46091;DHT22;31826;53.572;10.170;2023-06-24T13:43:09;29.30;82.20
46091;DHT22;31826;53.572;10.170;2023-06-24T13:45:35;28.80;82.80
46091;DHT22;31826;53.572;10.170;2023-06-24T13:48:01;28.40;86.30
46091;DHT22;31826;53.572;10.170;2023-06-24T13:50:26;28.30;89.60
46091;DHT22;31826;53.572;10.170;2023-06-24T13:52:52;28.30;87.90
46091;DHT22;31826;53.572;10.170;2023-06-24T13:55:18;28.00;87.10
46091;DHT22;31826;53.572;10.170;2023-06-24T13:57:43;27.90;85.80
46091;DHT22;31826;53.572;10.170;2023-06-24T14:00:09;27.90;87.90
46091;DHT22;31826;53.572;10.170;2023-06-24T14:02:36;28.20;85.60
46091;DHT22;31826;53.572;10.170;2023-06-24T14:05:02;28.70;90.10
46091;DHT22;31826;53.572;10.170;2023-06-24T14:07:28;29.20;89.00
46091;DHT22;31826;53.572;10.170;2023-06-24T14:09:54;29.70;85.60
46091;DHT22;31826;53.572;10.170;2023-06-24T14:12:20;29.70;84.50
46091;DHT22;31826;53.572;10.170;2023-06-24T14:14:46;29.90;83.30
46091;DHT22;31826;53.572;10.170;2023-06-24T14:17:12;29.60;82.10
46091;DHT22;31826;53.572;10.170;2023-06-24T14:19:41;29.30;80.60
46091;DHT22;31826;53.572;10.170;2023-06-24T14:22:07;28.70;83.50
46091;DHT22;31826;53.572;10.170;2023-06-24T14:24:33;28.60;86.70
46091;DHT22;31826;53.572;10.170;2023-06-24T14:26:59;28.90;84.10
46091;DHT22;31826;53.572;10.170;2023-06-24T14:29:24;28.60;82.90
46091;DHT22;31826;53.572;10.170;2023-06-24T14:31:51;28.50;83.00
46091;DHT22;31826;53.572;10.170;2023-06-24T14:34:17;28.40;83.80
46091;DHT22;31826;53.572;10.170;2023-06-24T14:36:43;28.70;85.30
46091;DHT22;31826;53.572;10.170;2023-06-24T14:39:09;29.30;86.90
46091;DHT22;31826;53.572;10.170;2023-06-24T14:41:35;29.80;83.30
46091;DHT22;31826;53.572;10.170;2023-06-24T14:44:01;30.10;82.60
46091;DHT22;31826;53.572;10.170;2023-06-24T14:46:26;30.50;85.50
46091;DHT22;31826;53.572;10.170;2023-06-24T14:48:52;30.40;80.90
46091;DHT22;31826;53.572;10.170;2023-06-24T14:51:18;30.40;84.40
46091;DHT22;31826;53.572;10.170;2023-06-24T14:53:43;30.40;81.90
46091;DHT22;31826;53.572;10.170;2023-06-24T14:56:09;30.10;79.50
46091;DHT22;31826;53.572;10.170;2023-06-24T14:58:35;29.80;81.30
46091;DHT22;31826;53.572;10.170;2023-06-24T15:01:00;29.60;81.70
46091;DHT22;31826;53.572;10.170;2023-06-24T15:03:26;29.70;81.50
46091;DHT22;31826;53.572;10.170;2023-06-24T15:05:52;29.50;82.10
46091;DHT22;31826;53.572;10.170;2023-06-24T15:08:17;29.30;82.90
46091;DHT22;31826;53.572;10.170;2023-06-24T15:10:43;29.30;81.40
46091;DHT22;31826;53.572;10.170;2023-06-24T15:13:09;29.20;81.20
46091;DHT22;31826;53.572;10.170;2023-06-24T15:15:35;28.70;83.30
46091;DHT22;31826;53.572;10.170;2023-06-24T15:18:00;28.30;83.40
46091;DHT22;31826;53.572;10.170;2023-06-24T15:20:26;27.90;84.90
46091;DHT22;31826;53.572;10.170;2023-06-24T15:22:52;28.00;84.60
46091;DHT22;31826;53.572;10.170;2023-06-24T15:25:18;27.70;85.50